Time;durP1;ratioP1;P1;durP2;ratioP2;P2;SDS_P1;SDS_P2;PMS_P1;PMS_P2;Temp;Humidity;BMP_temperature;BMP_pressure;BME280_temperature;BME280_humidity;BME280_pressure;Samples;Min_cycle;Max_cycle;Signal;HPM_P1;HPM_P2
2023/07/22 00:01:23;;;;;;;7.75;4.72;;;;;;;;;;4972356;28;20138;-78
2023/07/22 00:03:49;;;;;;;6.32;4.65;;;;;;;;;;4973810;28;20030;-78
2023/07/22 00:06:15;;;;;;;6.90;4.40;;;;;;;;;;4956689;28;20523;-79
2023/07/22 00:08:40;;;;;;;7.43;4.80;;;;;;;;;;4974387;28;20101;-80
2023/07/22 00:11:06;;;;;;;6.05;4.30;;;;;;;;;;4956683;28;20054;-76
2023/07/22 00:13:33;;;;;;;5.90;4.72;;;;;;;;;;4974260;28;20035;-78
2023/07/22 00:16:00;;;;;;;7.88;4.63;;;;;;;;;;4958094;28;20027;-78
2023/07/22 00:18:28;;;;;;;7.40;4.47;;;;;;;;;;4975898;28;20372;-78
2023/07/22 00:20:54;;;;;;;8.60;5.25;;;;;;;;;;4976094;28;20030;-79
2023/07/22 00:23:20;;;;;;;6.13;5.05;;;;;;;;;;4958438;28;20035;-79
2023/07/22 00:25:49;;;;;;;5.47;4.80;;;;;;;;;;4964867;28;20034;-80
2023/07/22 00:28:15;;;;;;;7.63;5.50;;;;;;;;;;4988276;28;20029;-79
2023/07/22 00:30:41;;;;;;;6.35;5.22;;;;;;;;;;4983770;28;20022;-79
2023/07/22 00:33:07;;;;;;;9.25;4.38;;;;;;;;;;4978493;28;20038;-79
2023/07/22 00:35:32;;;;;;;5.53;3.78;;;;;;;;;;4977754;28;20127;-78
2023/07/22 00:38:00;;;;;;;5.00;4.13;;;;;;;;;;4975517;28;20039;-78
2023/07/22 00:40:26;;;;;;;3.67;3.08;;;;;;;;;;4955998;28;20122;-77
2023/07/22 00:42:51;;;;;;;5.90;3.83;;;;;;;;;;4940342;28;20049;-77
2023/07/22 00:45:17;;;;;;;5.75;3.42;;;;;;;;;;4973536;28;20041;-78
2023/07/22 00:47:44;;;;;;;4.57;3.60;;;;;;;;;;4971706;28;20027;-78
2023/07/22 00:50:09;;;;;;;5.13;3.47;;;;;;;;;;4974176;28;20057;-78
2023/07/22 00:52:35;;;;;;;4.90;3.65;;;;;;;;;;4974526;28;20078;-78
2023/07/22 00:55:02;;;;;;;8.00;3.80;;;;;;;;;;4956145;28;20110;-79
2023/07/22 00:57:28;;;;;;;5.72;2.65;;;;;;;;;;4972934;28;20121;-78
2023/07/22 00:59:54;;;;;;;3.75;3.17;;;;;;;;;;4972986;28;20600;-78
2023/07/22 01:02:21;;;;;;;5.28;2.75;;;;;;;;;;4972853;28;20030;-79
2023/07/22 01:04:47;;;;;;;5.10;3.17;;;;;;;;;;4972974;28;20105;-77
2023/07/22 01:07:14;;;;;;;4.93;2.85;;;;;;;;;;4973055;28;20102;-80
2023/07/22 01:09:42;;;;;;;5.78;3.30;;;;;;;;;;4955830;28;20027;-79
2023/07/22 01:12:09;;;;;;;3.97;3.08;;;;;;;;;;4956201;28;20089;-78
2023/07/22 01:14:40;;;;;;;4.15;3.70;;;;;;;;;;4955314;28;20030;-79
2023/07/22 01:17:08;;;;;;;4.80;3.20;;;;;;;;;;4971661;28;20063;-79
2023/07/22 01:19:34;;;;;;;4.65;3.08;;;;;;;;;;4956117;28;20052;-79
2023/07/22 01:22:05;;;;;;;6.18;3.10;;;;;;;;;;4974972;28;20097;-79
2023/07/22 01:24:31;;;;;;;5.10;3.38;;;;;;;;;;4957722;28;20045;-78
2023/07/22 01:26:58;;;;;;;4.40;2.78;;;;;;;;;;4975525;28;20038;-78
2023/07/22 01:29:24;;;;;;;4.50;3.00;;;;;;;;;;4956714;28;20129;-80
2023/07/22 01:31:54;;;;;;;3.53;3.05;;;;;;;;;;4958718;28;20113;-80
2023/07/22 01:34:21;;;;;;;3.72;2.65;;;;;;;;;;4976815;28;20349;-79
2023/07/22 01:36:47;;;;;;;3.85;3.22;;;;;;;;;;4971091;28;20011;-79
2023/07/22 01:39:14;;;;;;;4.53;2.95;;;;;;;;;;4964380;28;20030;-78
2023/07/22 01:41:39;;;;;;;4.05;3.03;;;;;;;;;;4959320;28;20355;-79
2023/07/22 01:44:05;;;;;;;5.35;2.97;;;;;;;;;;4961404;28;20138;-79
2023/07/22 01:46:30;;;;;;;4.75;2.70;;;;;;;;;;4972543;28;20102;-79
2023/07/22 01:48:56;;;;;;;4.55;2.95;;;;;;;;;;4972210;28;20062;-80
2023/07/22 01:51:21;;;;;;;6.30;2.80;;;;;;;;;;4995875;28;20030;-80
2023/07/22 01:53:47;;;;;;;3.50;2.90;;;;;;;;;;4999413;28;20041;-78
2023/07/22 01:56:13;;;;;;;3.40;2.88;;;;;;;;;;5001218;28;20416;-77
2023/07/22 01:58:39;;;;;;;5.55;3.20;;;;;;;;;;4975891;28;20466;-78
2023/07/22 02:01:04;;;;;;;5.22;3.47;;;;;;;;;;4961201;28;20113;-79
2023/07/22 02:03:30;;;;;;;5.50;3.70;;;;;;;;;;4973316;28;20432;-80
2023/07/22 02:06:02;;;;;;;4.03;3.05;;;;;;;;;;4971882;28;20045;-78
2023/07/22 02:08:28;;;;;;;4.13;2.88;;;;;;;;;;4954064;28;20030;-79
2023/07/22 02:10:53;;;;;;;3.72;2.90;;;;;;;;;;4954254;28;20038;-75
2023/07/22 02:13:19;;;;;;;5.95;3.40;;;;;;;;;;4971286;28;20019;-76
2023/07/22 02:15:44;;;;;;;6.28;2.80;;;;;;;;;;4954084;28;20029;-77
2023/07/22 02:18:11;;;;;;;4.65;3.15;;;;;;;;;;4954382;28;20026;-76
2023/07/22 02:20:36;;;;;;;6.88;3.40;;;;;;;;;;4971072;28;20078;-76
2023/07/22 02:23:02;;;;;;;3.50;2.85;;;;;;;;;;4953978;28;20039;-75
2023/07/22 02:25:28;;;;;;;3.78;2.95;;;;;;;;;;4953237;28;20022;-75
2023/07/22 02:27:53;;;;;;;4.50;3.13;;;;;;;;;;4953526;28;20483;-76
2023/07/22 02:30:19;;;;;;;5.65;3.78;;;;;;;;;;4953332;28;20046;-75
2023/07/22 02:32:45;;;;;;;6.53;3.42;;;;;;;;;;4953124;28;20027;-75
2023/07/22 02:35:11;;;;;;;4.68;3.10;;;;;;;;;;4953659;28;20113;-74
2023/07/22 02:37:38;;;;;;;6.40;3.53;;;;;;;;;;4970737;28;20042;-75
2023/07/22 02:40:13;;;;;;;3.95;3.30;;;;;;;;;;4970972;28;20035;-75
2023/07/22 02:42:39;;;;;;;5.68;3.30;;;;;;;;;;4971104;28;20054;-75
2023/07/22 02:45:07;;;;;;;6.25;3.38;;;;;;;;;;4970935;28;20026;-75
2023/07/22 02:47:34;;;;;;;6.10;3.35;;;;;;;;;;4969501;28;20027;-75
2023/07/22 02:50:00;;;;;;;5.25;3.63;;;;;;;;;;4970813;28;20029;-74
2023/07/22 02:52:26;;;;;;;6.00;3.10;;;;;;;;;;4953460;28;20031;-74
2023/07/22 02:55:05;;;;;;;5.57;3.40;;;;;;;;;;4953499;28;20034;-75
2023/07/22 02:57:30;;;;;;;4.82;3.30;;;;;;;;;;4953743;28;20039;-75
2023/07/22 02:59:56;;;;;;;5.55;3.72;;;;;;;;;;4970962;28;20031;-74
2023/07/22 03:02:22;;;;;;;7.13;3.13;;;;;;;;;;4973507;28;20062;-76
2023/07/22 03:04:47;;;;;;;8.90;3.65;;;;;;;;;;4974682;28;20058;-75
2023/07/22 03:07:13;;;;;;;6.10;3.58;;;;;;;;;;4973544;28;20027;-76
2023/07/22 03:09:38;;;;;;;6.07;3.65;;;;;;;;;;4956871;28;20031;-75
2023/07/22 03:12:04;;;;;;;5.18;3.38;;;;;;;;;;4957274;28;20460;-74
2023/07/22 03:14:37;;;;;;;5.80;3.10;;;;;;;;;;4956902;28;20038;-75
2023/07/22 03:17:05;;;;;;;6.43;3.30;;;;;;;;;;4957251;28;20414;-73
2023/07/22 03:19:31;;;;;;;7.60;3.70;;;;;;;;;;4974736;28;20097;-73
2023/07/22 03:21:56;;;;;;;5.13;3.30;;;;;;;;;;4974450;28;20459;-76
2023/07/22 03:24:22;;;;;;;5.40;3.28;;;;;;;;;;4956875;28;20042;-75
2023/07/22 03:26:47;;;;;;;21.17;5.75;;;;;;;;;;4976074;28;20382;-75
2023/07/22 03:29:13;;;;;;;11.82;3.65;;;;;;;;;;4976276;28;20038;-75
2023/07/22 03:31:39;;;;;;;5.13;3.20;;;;;;;;;;4974578;28;20039;-75
2023/07/22 03:34:04;;;;;;;3.83;2.90;;;;;;;;;;4974695;28;20106;-74
2023/07/22 03:36:33;;;;;;;4.40;3.35;;;;;;;;;;4956921;28;20464;-75
2023/07/22 03:38:59;;;;;;;4.07;2.97;;;;;;;;;;4972725;28;20090;-75
2023/07/22 03:41:25;;;;;;;5.05;3.10;;;;;;;;;;4972224;28;20768;-75
2023/07/22 03:43:50;;;;;;;4.88;3.38;;;;;;;;;;4973922;28;20110;-75
2023/07/22 03:46:17;;;;;;;4.18;2.90;;;;;;;;;;4956457;28;20085;-75
2023/07/22 03:48:43;;;;;;;6.10;2.88;;;;;;;;;;4974210;28;20445;-76
2023/07/22 03:51:08;;;;;;;4.43;3.17;;;;;;;;;;4974080;28;20035;-74
2023/07/22 03:53:34;;;;;;;5.65;2.65;;;;;;;;;;4973639;28;20041;-74
2023/07/22 03:55:59;;;;;;;3.30;2.90;;;;;;;;;;4956321;28;20143;-75
2023/07/22 03:58:25;;;;;;;3.20;2.78;;;;;;;;;;4956418;28;20047;-75
2023/07/22 04:00:50;;;;;;;3.58;2.78;;;;;;;;;;4957051;28;20035;-75
2023/07/22 04:03:16;;;;;;;4.82;2.67;;;;;;;;;;4956788;28;20406;-75
2023/07/22 04:05:41;;;;;;;9.27;2.67;;;;;;;;;;4964128;28;20479;-74
2023/07/22 04:08:08;;;;;;;5.30;3.05;;;;;;;;;;4975239;28;20087;-74
2023/07/22 04:10:33;;;;;;;3.00;2.65;;;;;;;;;;4975024;28;20026;-75
2023/07/22 04:12:59;;;;;;;5.07;2.60;;;;;;;;;;4992988;28;20060;-77
2023/07/22 04:15:24;;;;;;;3.83;2.38;;;;;;;;;;4975331;28;20046;-75
2023/07/22 04:17:50;;;;;;;4.38;2.97;;;;;;;;;;4975673;28;20027;-74
2023/07/22 04:20:15;;;;;;;3.35;2.47;;;;;;;;;;4993228;28;20038;-75
2023/07/22 04:22:41;;;;;;;6.82;2.55;;;;;;;;;;4992704;28;20554;-74
2023/07/22 04:25:07;;;;;;;2.53;2.28;;;;;;;;;;4992649;28;20026;-75
2023/07/22 04:27:34;;;;;;;3.13;2.33;;;;;;;;;;4974947;28;20045;-74
2023/07/22 04:29:59;;;;;;;5.43;2.55;;;;;;;;;;4975069;28;20037;-75
2023/07/22 04:32:25;;;;;;;3.90;2.67;;;;;;;;;;4974795;28;20042;-76
2023/07/22 04:34:50;;;;;;;6.75;2.40;;;;;;;;;;4975142;28;20165;-76
2023/07/22 04:37:16;;;;;;;12.38;4.00;;;;;;;;;;4992596;28;20046;-76
2023/07/22 04:39:42;;;;;;;3.60;2.50;;;;;;;;;;4992148;28;20034;-75
2023/07/22 04:42:08;;;;;;;3.05;2.33;;;;;;;;;;4992368;28;20105;-76
2023/07/22 04:44:33;;;;;;;5.47;3.20;;;;;;;;;;4974784;28;20033;-76
2023/07/22 04:46:59;;;;;;;3.65;2.70;;;;;;;;;;4992409;28;20037;-75
2023/07/22 04:49:25;;;;;;;3.85;2.70;;;;;;;;;;4974653;28;20027;-75
2023/07/22 04:51:51;;;;;;;7.05;3.10;;;;;;;;;;4991012;28;20037;-75
2023/07/22 04:54:17;;;;;;;7.22;2.83;;;;;;;;;;4992413;28;20080;-76
2023/07/22 04:56:43;;;;;;;3.08;2.67;;;;;;;;;;4958205;28;20096;-75
2023/07/22 04:59:09;;;;;;;8.25;3.03;;;;;;;;;;4992047;28;20038;-75
2023/07/22 05:01:35;;;;;;;6.28;3.28;;;;;;;;;;4974391;28;20101;-75
2023/07/22 05:04:01;;;;;;;4.47;2.95;;;;;;;;;;4991902;28;20664;-75
2023/07/22 05:06:28;;;;;;;3.85;2.90;;;;;;;;;;4974249;28;20026;-75
2023/07/22 05:08:53;;;;;;;10.45;3.00;;;;;;;;;;4992472;28;20386;-75
2023/07/22 05:11:19;;;;;;;5.47;3.03;;;;;;;;;;4992616;28;20038;-75
2023/07/22 05:13:44;;;;;;;5.35;2.97;;;;;;;;;;4993009;28;20026;-75
2023/07/22 05:16:09;;;;;;;5.85;2.97;;;;;;;;;;4975725;28;20033;-74
2023/07/22 05:18:35;;;;;;;5.85;3.38;;;;;;;;;;4991690;28;20037;-74
2023/07/22 05:21:00;;;;;;;4.82;3.00;;;;;;;;;;4993711;28;20030;-74
2023/07/22 05:23:26;;;;;;;6.07;3.35;;;;;;;;;;4977433;28;20117;-75
2023/07/22 05:25:53;;;;;;;6.93;3.00;;;;;;;;;;4993466;28;20041;-76
2023/07/22 05:28:19;;;;;;;5.20;2.67;;;;;;;;;;4991979;28;20034;-76
2023/07/22 05:30:45;;;;;;;6.85;3.05;;;;;;;;;;4992798;28;20030;-74
2023/07/22 05:33:10;;;;;;;7.07;3.38;;;;;;;;;;4990468;28;20038;-74
2023/07/22 05:35:36;;;;;;;6.30;2.97;;;;;;;;;;4990610;28;20053;-76
2023/07/22 05:38:04;;;;;;;5.85;3.88;;;;;;;;;;4991492;28;20068;-75
2023/07/22 05:40:30;;;;;;;5.40;3.50;;;;;;;;;;4973045;28;20030;-74
2023/07/22 05:42:56;;;;;;;6.40;3.30;;;;;;;;;;4990703;28;20030;-74
2023/07/22 05:45:21;;;;;;;6.93;3.75;;;;;;;;;;4973285;28;20084;-76
2023/07/22 05:47:47;;;;;;;6.10;3.65;;;;;;;;;;4973163;28;20034;-75
2023/07/22 05:50:12;;;;;;;6.25;3.50;;;;;;;;;;4973404;28;20038;-75
2023/07/22 05:52:38;;;;;;;5.07;3.95;;;;;;;;;;4990766;28;20092;-75
2023/07/22 05:55:04;;;;;;;3.83;3.25;;;;;;;;;;4990939;28;20030;-76
2023/07/22 05:57:30;;;;;;;7.15;3.63;;;;;;;;;;4973227;28;20053;-76
2023/07/22 05:59:55;;;;;;;5.18;3.28;;;;;;;;;;4991369;28;20057;-75
2023/07/22 06:02:21;;;;;;;3.85;3.10;;;;;;;;;;4974185;28;20034;-75
2023/07/22 06:04:48;;;;;;;5.72;3.30;;;;;;;;;;4975514;28;20030;-75
2023/07/22 06:07:13;;;;;;;5.13;3.30;;;;;;;;;;4981335;28;20049;-74
2023/07/22 06:09:45;;;;;;;6.53;4.07;;;;;;;;;;4999683;28;20034;-79
2023/07/22 06:12:11;;;;;;;6.47;3.85;;;;;;;;;;5005378;28;20030;-75
2023/07/22 06:14:38;;;;;;;4.30;3.80;;;;;;;;;;4986245;28;20535;-77
2023/07/22 06:17:04;;;;;;;5.35;3.55;;;;;;;;;;4978822;28;20391;-76
2023/07/22 06:19:31;;;;;;;7.68;5.10;;;;;;;;;;4992780;28;20030;-76
2023/07/22 06:21:57;;;;;;;8.20;3.90;;;;;;;;;;4993102;28;20033;-74
2023/07/22 06:24:22;;;;;;;4.85;3.92;;;;;;;;;;4975677;28;20030;-75
2023/07/22 06:26:48;;;;;;;7.93;4.38;;;;;;;;;;4993078;28;20144;-75
2023/07/22 06:29:17;;;;;;;5.93;3.80;;;;;;;;;;4975813;28;20028;-74
2023/07/22 06:31:48;;;;;;;8.75;4.38;;;;;;;;;;4993357;28;20037;-75
2023/07/22 06:34:14;;;;;;;5.85;3.95;;;;;;;;;;4959510;28;20463;-75
2023/07/22 06:36:39;;;;;;;6.22;4.28;;;;;;;;;;4974865;28;20061;-78
2023/07/22 06:39:06;;;;;;;6.25;4.57;;;;;;;;;;4975931;28;20117;-76
2023/07/22 06:41:31;;;;;;;6.50;4.35;;;;;;;;;;4975852;28;20384;-75
2023/07/22 06:43:58;;;;;;;6.30;4.00;;;;;;;;;;4976105;28;20102;-76
2023/07/22 06:46:26;;;;;;;9.68;4.35;;;;;;;;;;4976108;28;20046;-75
2023/07/22 06:48:52;;;;;;;5.68;4.20;;;;;;;;;;4991524;28;20038;-76
2023/07/22 06:51:18;;;;;;;8.90;4.60;;;;;;;;;;4993934;28;20057;-75
2023/07/22 06:53:44;;;;;;;5.88;4.35;;;;;;;;;;4976750;28;20415;-75
2023/07/22 06:56:10;;;;;;;6.65;4.20;;;;;;;;;;4976108;28;20038;-75
2023/07/22 06:58:37;;;;;;;7.78;4.78;;;;;;;;;;4992267;28;20030;-75
2023/07/22 07:01:04;;;;;;;4.97;3.88;;;;;;;;;;4977058;28;20030;-76
2023/07/22 07:03:30;;;;;;;6.55;4.68;;;;;;;;;;4976662;28;20022;-75
2023/07/22 07:05:56;;;;;;;9.10;4.43;;;;;;;;;;4993067;28;20359;-75
2023/07/22 07:08:23;;;;;;;5.43;4.03;;;;;;;;;;4993966;28;20053;-75
2023/07/22 07:10:49;;;;;;;7.32;3.85;;;;;;;;;;4976027;28;20026;-75
2023/07/22 07:13:19;;;;;;;5.65;3.40;;;;;;;;;;4976018;28;20030;-74
2023/07/22 07:15:51;;;;;;;3.63;2.80;;;;;;;;;;4995189;28;20056;-76
2023/07/22 07:18:17;;;;;;;3.70;3.27;;;;;;;;;;4977155;28;20032;-77
2023/07/22 07:20:46;;;;;;;4.97;3.28;;;;;;;;;;4977125;28;20030;-75
2023/07/22 07:23:17;;;;;;;5.82;3.22;;;;;;;;;;4995281;28;20065;-76
2023/07/22 07:25:43;;;;;;;4.60;3.40;;;;;;;;;;4977814;28;20037;-75
2023/07/22 07:28:14;;;;;;;4.07;3.00;;;;;;;;;;4995856;28;20026;-75
2023/07/22 07:30:39;;;;;;;;;;;;;;;;;;4978600;28;20037;-74
2023/07/22 07:33:15;;;;;;;5.35;3.30;;;;;;;;;;4979888;28;19910;-76
2023/07/22 07:35:47;;;;;;;3.60;2.90;;;;;;;;;;4996697;28;20050;-76
2023/07/22 07:38:14;;;;;;;3.70;3.05;;;;;;;;;;4993440;28;20092;-76
2023/07/22 07:40:44;;;;;;;5.40;3.03;;;;;;;;;;4994568;28;20049;-76
2023/07/22 07:43:09;;;;;;;4.28;3.13;;;;;;;;;;4997160;28;20018;-75
2023/07/22 07:45:39;;;;;;;3.58;3.10;;;;;;;;;;4992344;28;20508;-76
2023/07/22 07:48:10;;;;;;;6.53;3.13;;;;;;;;;;4978991;28;20081;-76
2023/07/22 07:50:36;;;;;;;5.78;3.17;;;;;;;;;;4978202;28;20027;-75
2023/07/22 07:53:07;;;;;;;3.88;2.92;;;;;;;;;;4998825;28;20029;-75
2023/07/22 07:55:34;;;;;;;5.43;3.25;;;;;;;;;;4979946;28;20030;-75
2023/07/22 07:58:01;;;;;;;3.95;3.08;;;;;;;;;;4980794;28;20037;-75
2023/07/22 08:00:30;;;;;;;3.55;2.85;;;;;;;;;;4979484;28;20104;-74
2023/07/22 08:02:57;;;;;;;3.70;2.83;;;;;;;;;;4979097;28;20073;-76
2023/07/22 08:05:26;;;;;;;4.53;3.20;;;;;;;;;;4979939;28;20117;-75
2023/07/22 08:07:52;;;;;;;4.10;2.97;;;;;;;;;;4980603;28;20081;-74
2023/07/22 08:10:20;;;;;;;5.05;2.72;;;;;;;;;;4996512;28;20038;-75
2023/07/22 08:12:49;;;;;;;4.32;2.75;;;;;;;;;;4997972;28;20050;-75
2023/07/22 08:15:17;;;;;;;3.90;3.30;;;;;;;;;;4980229;28;20053;-76
2023/07/22 08:17:43;;;;;;;6.43;3.15;;;;;;;;;;4980016;28;20034;-76
2023/07/22 08:20:17;;;;;;;4.10;3.15;;;;;;;;;;4996098;28;20110;-75
2023/07/22 08:22:43;;;;;;;6.78;2.78;;;;;;;;;;4996842;28;20435;-75
2023/07/22 08:25:10;;;;;;;7.53;3.00;;;;;;;;;;4980110;28;20026;-76
2023/07/22 08:27:40;;;;;;;4.70;2.80;;;;;;;;;;4995934;28;20391;-76
2023/07/22 08:30:07;;;;;;;5.63;2.90;;;;;;;;;;4980835;28;20026;-75
2023/07/22 08:32:33;;;;;;;4.45;2.40;;;;;;;;;;4979745;28;20109;-74
2023/07/22 08:34:59;;;;;;;4.45;2.90;;;;;;;;;;4979949;28;20499;-75
2023/07/22 08:37:26;;;;;;;4.65;2.88;;;;;;;;;;4962742;28;20466;-76
2023/07/22 08:39:52;;;;;;;5.47;2.50;;;;;;;;;;4996046;28;20030;-74
2023/07/22 08:42:19;;;;;;;3.97;2.95;;;;;;;;;;4995535;28;20073;-76
2023/07/22 08:44:49;;;;;;;6.07;3.20;;;;;;;;;;4994677;28;20097;-74
2023/07/22 08:47:20;;;;;;;3.55;3.10;;;;;;;;;;4978769;28;20057;-74
2023/07/22 08:49:51;;;;;;;3.90;3.00;;;;;;;;;;4978012;28;20089;-76
2023/07/22 08:52:18;;;;;;;3.88;2.60;;;;;;;;;;4979016;28;20046;-76
2023/07/22 08:54:45;;;;;;;7.20;3.25;;;;;;;;;;4996938;28;20026;-75
2023/07/22 08:57:12;;;;;;;4.18;2.58;;;;;;;;;;4979614;28;20061;-75
2023/07/22 08:59:39;;;;;;;4.00;2.10;;;;;;;;;;4978384;28;20026;-75
2023/07/22 09:02:14;;;;;;;2.30;1.92;;;;;;;;;;4995501;28;20038;-76
2023/07/22 09:04:42;;;;;;;3.88;2.45;;;;;;;;;;4962934;28;20503;-75
2023/07/22 09:07:09;;;;;;;2.55;2.17;;;;;;;;;;4978642;28;20033;-77
2023/07/22 09:09:38;;;;;;;3.60;2.53;;;;;;;;;;4979215;28;20086;-75
2023/07/22 09:12:06;;;;;;;5.57;2.50;;;;;;;;;;4978724;28;20026;-74
2023/07/22 09:14:34;;;;;;;3.20;2.60;;;;;;;;;;4996005;28;20030;-75
2023/07/22 09:17:07;;;;;;;3.67;2.75;;;;;;;;;;4979129;28;20101;-75
2023/07/22 09:19:33;;;;;;;3.90;2.22;;;;;;;;;;4961822;28;20052;-74
2023/07/22 09:22:00;;;;;;;2.80;2.00;;;;;;;;;;4978196;28;20122;-76
2023/07/22 09:24:28;;;;;;;3.97;2.42;;;;;;;;;;4996063;28;20026;-75
2023/07/22 09:26:54;;;;;;;3.10;2.40;;;;;;;;;;4978657;28;20037;-75
2023/07/22 09:29:40;;;;;;;6.07;3.20;;;;;;;;;;4978853;28;20030;-75
2023/07/22 09:32:08;;;;;;;5.35;2.55;;;;;;;;;;4978849;28;20036;-75
2023/07/22 09:34:36;;;;;;;3.13;2.58;;;;;;;;;;4995394;28;20065;-74
2023/07/22 09:37:03;;;;;;;3.38;2.53;;;;;;;;;;4977938;28;20042;-75
2023/07/22 09:39:35;;;;;;;4.03;2.33;;;;;;;;;;4977842;28;20447;-77
2023/07/22 09:42:02;;;;;;;;;;;;;;;;;;4978573;28;20107;-74
2023/07/22 09:44:36;;;;;;;2.83;2.38;;;;;;;;;;4996460;28;19909;-74
2023/07/22 09:47:07;;;;;;;3.92;2.55;;;;;;;;;;4980217;28;20029;-75
2023/07/22 09:49:33;;;;;;;;;;;;;;;;;;4997007;28;20034;-76
2023/07/22 09:51:59;;;;;;;4.18;2.45;;;;;;;;;;4977880;28;19913;-75
2023/07/22 09:54:29;;;;;;;4.47;2.53;;;;;;;;;;4977087;28;20110;-75
2023/07/22 09:56:56;;;;;;;3.97;2.63;;;;;;;;;;4959803;28;20031;-75
2023/07/22 09:59:23;;;;;;;3.38;2.70;;;;;;;;;;4959987;28;20101;-76
2023/07/22 10:01:58;;;;;;;4.72;2.58;;;;;;;;;;4975829;28;20039;-74
2023/07/22 10:04:28;;;;;;;4.45;3.10;;;;;;;;;;4959981;28;20030;-75
2023/07/22 10:06:54;;;;;;;3.92;2.33;;;;;;;;;;4959634;28;20039;-77
2023/07/22 10:09:27;;;;;;;5.20;2.15;;;;;;;;;;4978401;28;20034;-75
2023/07/22 10:11:53;;;;;;;2.58;2.38;;;;;;;;;;4960543;28;20031;-74
2023/07/22 10:14:21;;;;;;;5.88;2.45;;;;;;;;;;4978768;28;20034;-75
2023/07/22 10:16:47;;;;;;;5.00;2.80;;;;;;;;;;4979801;28;20027;-75
2023/07/22 10:19:14;;;;;;;3.75;2.83;;;;;;;;;;4978024;28;20038;-75
2023/07/22 10:21:43;;;;;;;4.07;2.47;;;;;;;;;;4981301;28;20023;-75
2023/07/22 10:24:10;;;;;;;8.82;6.88;;;;;;;;;;4982927;28;20138;-73
2023/07/22 10:26:36;;;;;;;4.63;2.85;;;;;;;;;;4952998;28;20031;-75
2023/07/22 10:29:07;;;;;;;3.97;2.50;;;;;;;;;;4986680;28;20083;-74
2023/07/22 10:31:33;;;;;;;5.05;2.53;;;;;;;;;;4964976;28;20030;-75
2023/07/22 10:33:59;;;;;;;5.30;2.65;;;;;;;;;;4977116;28;20054;-76
2023/07/22 10:36:30;;;;;;;5.18;2.90;;;;;;;;;;4958300;28;20046;-76
2023/07/22 10:38:59;;;;;;;3.35;2.80;;;;;;;;;;4977412;28;20031;-77
2023/07/22 10:41:27;;;;;;;2.70;2.40;;;;;;;;;;4959586;28;20026;-76
2023/07/22 10:44:00;;;;;;;3.72;2.38;;;;;;;;;;4976336;28;20027;-75
2023/07/22 10:46:43;;;;;;;4.57;2.55;;;;;;;;;;4943664;28;20038;-74
2023/07/22 10:49:16;;;;;;;4.57;2.42;;;;;;;;;;4977191;28;20077;-75
2023/07/22 10:51:49;;;;;;;5.97;2.65;;;;;;;;;;4977146;28;20031;-76
2023/07/22 10:54:47;;;;;;;3.38;2.15;;;;;;;;;;4959460;28;20023;-75
2023/07/22 10:57:19;;;;;;;5.35;2.63;;;;;;;;;;4923138;28;20043;-75
2023/07/22 10:59:55;;;;;;;4.60;2.30;;;;;;;;;;4976839;28;20030;-76
2023/07/22 11:02:30;;;;;;;3.25;2.28;;;;;;;;;;4975101;28;20448;-75
2023/07/22 11:05:00;;;;;;;5.10;2.63;;;;;;;;;;4976078;28;20027;-75
2023/07/22 11:07:32;;;;;;;8.20;3.40;;;;;;;;;;4976360;28;20027;-74
2023/07/22 11:10:11;;;;;;;3.67;2.45;;;;;;;;;;4959303;28;20035;-74
2023/07/22 11:12:42;;;;;;;3.17;2.60;;;;;;;;;;4975831;28;20034;-74
2023/07/22 11:15:09;;;;;;;7.45;2.80;;;;;;;;;;4960739;28;20055;-76
2023/07/22 11:17:37;;;;;;;4.32;2.95;;;;;;;;;;4978196;28;20106;-75
2023/07/22 11:20:04;;;;;;;5.25;2.33;;;;;;;;;;4943954;28;20096;-75
2023/07/22 11:22:31;;;;;;;4.78;2.80;;;;;;;;;;4961393;28;20193;-76
2023/07/22 11:25:00;;;;;;;4.82;2.40;;;;;;;;;;4964737;28;20035;-74
2023/07/22 11:27:26;;;;;;;5.53;2.47;;;;;;;;;;4964093;28;20038;-74
2023/07/22 11:29:57;;;;;;;6.32;2.50;;;;;;;;;;4962168;28;20027;-75
2023/07/22 11:32:24;;;;;;;2.40;2.03;;;;;;;;;;4961550;28;20120;-75
2023/07/22 11:34:53;;;;;;;4.93;2.75;;;;;;;;;;4960919;28;20026;-75
2023/07/22 11:37:21;;;;;;;4.28;2.70;;;;;;;;;;4979292;28;20030;-74
2023/07/22 11:39:47;;;;;;;3.30;2.42;;;;;;;;;;4980011;28;20045;-75
2023/07/22 11:42:13;;;;;;;3.70;2.55;;;;;;;;;;4978863;28;20116;-75
2023/07/22 11:44:41;;;;;;;7.25;2.80;;;;;;;;;;4979467;28;20057;-75
2023/07/22 11:47:08;;;;;;;5.88;3.47;;;;;;;;;;4979659;28;20019;-75
2023/07/22 11:49:42;;;;;;;4.03;2.20;;;;;;;;;;4960049;28;20336;-75
2023/07/22 11:52:18;;;;;;;3.95;2.13;;;;;;;;;;4979582;28;20030;-75
2023/07/22 11:54:45;;;;;;;3.95;2.35;;;;;;;;;;4957349;28;20101;-75
2023/07/22 11:57:22;;;;;;;4.50;2.38;;;;;;;;;;4974312;28;20030;-75
2023/07/22 11:59:52;;;;;;;2.95;2.45;;;;;;;;;;4956609;28;20121;-76
2023/07/22 12:02:25;;;;;;;3.70;2.55;;;;;;;;;;4956756;28;20125;-75
2023/07/22 12:04:56;;;;;;;3.28;2.00;;;;;;;;;;4956154;28;20023;-76
2023/07/22 12:07:27;;;;;;;2.90;2.30;;;;;;;;;;4956155;28;20065;-75
2023/07/22 12:09:55;;;;;;;2.37;1.90;;;;;;;;;;4956188;28;20029;-74
2023/07/22 12:12:20;;;;;;;4.35;2.35;;;;;;;;;;4956330;28;20026;-75
2023/07/22 12:14:46;;;;;;;2.92;2.15;;;;;;;;;;4956006;28;20114;-75
2023/07/22 12:17:12;;;;;;;3.95;2.50;;;;;;;;;;4973580;28;20038;-75
2023/07/22 12:19:37;;;;;;;5.57;2.20;;;;;;;;;;4956385;28;20173;-76
2023/07/22 12:22:03;;;;;;;3.45;2.08;;;;;;;;;;4974417;28;20325;-75
2023/07/22 12:24:29;;;;;;;3.15;2.40;;;;;;;;;;4973219;28;20045;-76
2023/07/22 12:26:55;;;;;;;5.32;2.47;;;;;;;;;;4973374;28;20023;-76
2023/07/22 12:29:22;;;;;;;3.13;2.30;;;;;;;;;;4955890;28;20040;-75
2023/07/22 12:31:47;;;;;;;2.50;2.00;;;;;;;;;;4956193;28;20042;-75
2023/07/22 12:34:13;;;;;;;1.75;1.52;;;;;;;;;;4972005;28;20034;-76
2023/07/22 12:36:39;;;;;;;4.25;2.20;;;;;;;;;;4973352;28;20059;-75
2023/07/22 12:39:05;;;;;;;2.78;1.88;;;;;;;;;;4939982;28;20043;-76
2023/07/22 12:41:30;;;;;;;4.18;2.05;;;;;;;;;;4955858;28;20074;-75
2023/07/22 12:43:56;;;;;;;3.42;2.15;;;;;;;;;;4972077;28;20471;-76
2023/07/22 12:46:22;;;;;;;3.50;2.10;;;;;;;;;;4955697;28;20054;-76
2023/07/22 12:48:47;;;;;;;3.13;2.20;;;;;;;;;;4955845;28;20054;-76
2023/07/22 12:51:13;;;;;;;2.95;2.50;;;;;;;;;;4973038;28;20030;-76
2023/07/22 12:53:39;;;;;;;2.75;1.95;;;;;;;;;;4971719;28;20035;-76
2023/07/22 12:56:05;;;;;;;3.60;2.20;;;;;;;;;;4972662;28;20205;-75
2023/07/22 12:58:31;;;;;;;3.10;2.58;;;;;;;;;;4972646;28;20073;-75
2023/07/22 13:00:57;;;;;;;3.15;2.63;;;;;;;;;;4954905;28;20030;-75
2023/07/22 13:03:22;;;;;;;3.75;2.00;;;;;;;;;;4955632;28;20365;-76
2023/07/22 13:05:48;;;;;;;3.47;2.35;;;;;;;;;;4955453;28;20430;-76
2023/07/22 13:08:14;;;;;;;4.20;2.20;;;;;;;;;;4955440;28;20046;-76
2023/07/22 13:10:43;;;;;;;4.57;2.35;;;;;;;;;;4972852;28;20023;-75
2023/07/22 13:13:10;;;;;;;3.58;2.20;;;;;;;;;;4972475;28;20626;-76
2023/07/22 13:15:35;;;;;;;3.40;2.22;;;;;;;;;;4954935;28;20031;-76
2023/07/22 13:18:02;;;;;;;2.85;1.92;;;;;;;;;;4954620;28;20044;-76
2023/07/22 13:20:28;;;;;;;2.58;2.10;;;;;;;;;;4955724;28;20027;-76
2023/07/22 13:22:55;;;;;;;2.90;2.42;;;;;;;;;;4955272;28;20022;-76
2023/07/22 13:25:21;;;;;;;4.25;2.20;;;;;;;;;;4973049;28;20112;-76
2023/07/22 13:27:46;;;;;;;6.40;3.90;;;;;;;;;;4955753;28;20082;-76
2023/07/22 13:30:12;;;;;;;3.97;2.22;;;;;;;;;;4972900;28;20050;-76
2023/07/22 13:32:37;;;;;;;5.15;1.98;;;;;;;;;;4955033;28;20034;-76
2023/07/22 13:35:03;;;;;;;4.32;2.33;;;;;;;;;;4972160;28;20046;-77
2023/07/22 13:37:30;;;;;;;2.70;2.20;;;;;;;;;;4971043;28;20031;-77
2023/07/22 13:39:57;;;;;;;2.80;2.33;;;;;;;;;;4970443;28;20185;-76
2023/07/22 13:42:23;;;;;;;3.53;1.90;;;;;;;;;;4970521;28;20042;-77
2023/07/22 13:44:48;;;;;;;3.17;2.30;;;;;;;;;;4953803;28;20125;-75
2023/07/22 13:47:14;;;;;;;3.10;2.50;;;;;;;;;;4971640;28;20041;-76
2023/07/22 13:49:39;;;;;;;4.75;2.33;;;;;;;;;;4971975;28;20039;-76
2023/07/22 13:52:05;;;;;;;3.85;2.40;;;;;;;;;;4954709;28;20034;-76
2023/07/22 13:54:30;;;;;;;7.75;2.78;;;;;;;;;;4972485;28;20058;-76
2023/07/22 13:56:56;;;;;;;6.05;2.72;;;;;;;;;;4972342;28;20456;-77
2023/07/22 13:59:21;;;;;;;3.65;2.50;;;;;;;;;;4955166;28;20025;-81
2023/07/22 14:01:47;;;;;;;6.15;2.65;;;;;;;;;;4980983;28;20031;-80
2023/07/22 14:04:12;;;;;;;3.22;2.38;;;;;;;;;;4973065;28;20061;-80
2023/07/22 14:06:38;;;;;;;3.58;2.67;;;;;;;;;;4954904;28;20043;-81
2023/07/22 14:09:03;;;;;;;3.33;2.60;;;;;;;;;;4954513;28;20034;-81
2023/07/22 14:11:29;;;;;;;2.90;2.30;;;;;;;;;;4970769;28;20050;-79
2023/07/22 14:13:54;;;;;;;2.92;2.35;;;;;;;;;;4970053;28;20027;-80
2023/07/22 14:16:20;;;;;;;5.50;2.65;;;;;;;;;;4954313;28;20046;-81
2023/07/22 14:18:45;;;;;;;4.47;2.85;;;;;;;;;;4954922;28;20116;-81
2023/07/22 14:21:11;;;;;;;4.90;2.72;;;;;;;;;;4954509;28;20034;-80
2023/07/22 14:23:40;;;;;;;5.38;2.90;;;;;;;;;;4970711;28;20027;-80
2023/07/22 14:26:05;;;;;;;5.75;2.72;;;;;;;;;;4954274;28;20050;-80
2023/07/22 14:28:30;;;;;;;4.72;2.60;;;;;;;;;;4954671;28;20476;-80
2023/07/22 14:30:56;;;;;;;4.50;2.72;;;;;;;;;;4955142;28;20039;-80
2023/07/22 14:33:22;;;;;;;4.28;2.90;;;;;;;;;;4955461;28;20023;-81
2023/07/22 14:35:47;;;;;;;4.57;2.30;;;;;;;;;;4977737;28;20055;-82
2023/07/22 14:38:13;;;;;;;5.35;2.63;;;;;;;;;;4987004;28;20058;-81
2023/07/22 14:40:38;;;;;;;8.38;2.92;;;;;;;;;;4977281;28;20027;-80
2023/07/22 14:43:04;;;;;;;3.17;2.25;;;;;;;;;;4976009;28;20085;-79